sensor_id;sensor_type;location;lat;lon;timestamp;P1;durP1;ratioP1;P2;durP2;ratioP2
5608;SDS011;2826;51.354;9.588;2022-09-06T00:01:35;7.70;;;5.10;;
5608;SDS011;2826;51.354;9.588;2022-09-06T00:04:03;5.13;;;4.67;;
5608;SDS011;2826;51.354;9.588;2022-09-06T00:06:31;5.70;;;4.90;;
5608;SDS011;2826;51.354;9.588;2022-09-06T00:08:59;6.93;;;5.33;;
5608;SDS011;2826;51.354;9.588;2022-09-06T00:11:27;4.90;;;4.40;;
5608;SDS011;2826;51.354;9.588;2022-09-06T00:13:54;5.40;;;4.90;;
5608;SDS011;2826;51.354;9.588;2022-09-06T00:16:21;5.10;;;4.60;;
5608;SDS011;2826;51.354;9.588;2022-09-06T00:18:51;5.90;;;5.20;;
5608;SDS011;2826;51.354;9.588;2022-09-06T00:21:19;6.70;;;5.30;;
5608;SDS011;2826;51.354;9.588;2022-09-06T00:23:48;6.37;;;4.77;;
5608;SDS011;2826;51.354;9.588;2022-09-06T00:26:16;4.60;;;4.20;;
5608;SDS011;2826;51.354;9.588;2022-09-06T00:28:43;7.83;;;5.67;;
5608;SDS011;2826;51.354;9.588;2022-09-06T00:31:10;7.90;;;5.70;;
5608;SDS011;2826;51.354;9.588;2022-09-06T00:33:39;7.83;;;5.10;;
5608;SDS011;2826;51.354;9.588;2022-09-06T00:36:06;10.63;;;5.30;;
5608;SDS011;2826;51.354;9.588;2022-09-06T00:38:33;6.77;;;5.60;;
5608;SDS011;2826;51.354;9.588;2022-09-06T00:41:00;10.30;;;5.70;;
5608;SDS011;2826;51.354;9.588;2022-09-06T00:43:28;5.80;;;5.20;;
5608;SDS011;2826;51.354;9.588;2022-09-06T00:45:55;6.20;;;5.23;;
5608;SDS011;2826;51.354;9.588;2022-09-06T00:48:22;6.50;;;5.73;;
5608;SDS011;2826;51.354;9.588;2022-09-06T00:50:50;6.60;;;4.90;;
5608;SDS011;2826;51.354;9.588;2022-09-06T00:53:19;6.03;;;5.43;;
5608;SDS011;2826;51.354;9.588;2022-09-06T00:55:47;8.23;;;5.87;;
5608;SDS011;2826;51.354;9.588;2022-09-06T00:58:15;6.77;;;5.67;;
5608;SDS011;2826;51.354;9.588;2022-09-06T01:00:43;8.90;;;5.70;;
5608;SDS011;2826;51.354;9.588;2022-09-06T01:03:10;8.33;;;5.30;;
5608;SDS011;2826;51.354;9.588;2022-09-06T01:05:41;7.40;;;5.40;;
5608;SDS011;2826;51.354;9.588;2022-09-06T01:08:15;10.37;;;4.70;;
5608;SDS011;2826;51.354;9.588;2022-09-06T01:10:53;6.03;;;5.43;;
5608;SDS011;2826;51.354;9.588;2022-09-06T01:13:43;9.93;;;5.73;;
5608;SDS011;2826;51.354;9.588;2022-09-06T01:16:20;6.83;;;5.50;;
5608;SDS011;2826;51.354;9.588;2022-09-06T01:19:02;6.37;;;5.80;;
5608;SDS011;2826;51.354;9.588;2022-09-06T01:21:44;6.20;;;5.60;;
5608;SDS011;2826;51.354;9.588;2022-09-06T01:24:24;7.30;;;6.00;;
5608;SDS011;2826;51.354;9.588;2022-09-06T01:27:27;6.53;;;5.40;;
5608;SDS011;2826;51.354;9.588;2022-09-06T01:30:07;7.60;;;6.00;;
5608;SDS011;2826;51.354;9.588;2022-09-06T01:32:40;11.90;;;5.60;;
5608;SDS011;2826;51.354;9.588;2022-09-06T01:35:14;6.20;;;5.60;;
5608;SDS011;2826;51.354;9.588;2022-09-06T01:37:46;8.57;;;6.33;;
5608;SDS011;2826;51.354;9.588;2022-09-06T01:40:13;7.23;;;5.73;;
5608;SDS011;2826;51.354;9.588;2022-09-06T01:42:42;6.00;;;5.40;;
5608;SDS011;2826;51.354;9.588;2022-09-06T01:45:13;15.33;;;5.90;;
5608;SDS011;2826;51.354;9.588;2022-09-06T01:47:44;8.60;;;6.50;;
5608;SDS011;2826;51.354;9.588;2022-09-06T01:50:33;6.53;;;5.73;;
5608;SDS011;2826;51.354;9.588;2022-09-06T01:53:15;7.03;;;5.83;;
5608;SDS011;2826;51.354;9.588;2022-09-06T01:55:53;6.73;;;5.70;;
5608;SDS011;2826;51.354;9.588;2022-09-06T01:58:32;7.57;;;5.83;;
5608;SDS011;2826;51.354;9.588;2022-09-06T02:01:16;8.50;;;6.40;;
5608;SDS011;2826;51.354;9.588;2022-09-06T02:03:53;7.90;;;5.93;;
5608;SDS011;2826;51.354;9.588;2022-09-06T02:06:28;13.27;;;6.00;;
5608;SDS011;2826;51.354;9.588;2022-09-06T02:09:00;9.63;;;6.07;;
5608;SDS011;2826;51.354;9.588;2022-09-06T02:11:30;7.57;;;5.80;;
5608;SDS011;2826;51.354;9.588;2022-09-06T02:14:05;7.00;;;6.10;;
5608;SDS011;2826;51.354;9.588;2022-09-06T02:16:37;8.40;;;5.83;;
5608;SDS011;2826;51.354;9.588;2022-09-06T02:19:07;6.63;;;6.03;;
5608;SDS011;2826;51.354;9.588;2022-09-06T02:21:40;10.23;;;6.20;;
5608;SDS011;2826;51.354;9.588;2022-09-06T02:24:10;8.30;;;6.27;;
5608;SDS011;2826;51.354;9.588;2022-09-06T02:26:42;6.80;;;6.10;;
5608;SDS011;2826;51.354;9.588;2022-09-06T02:29:12;6.10;;;5.50;;
5608;SDS011;2826;51.354;9.588;2022-09-06T02:31:42;8.20;;;6.50;;
5608;SDS011;2826;51.354;9.588;2022-09-06T02:34:13;6.80;;;6.10;;
5608;SDS011;2826;51.354;9.588;2022-09-06T02:36:42;7.90;;;6.10;;
5608;SDS011;2826;51.354;9.588;2022-09-06T02:39:10;8.27;;;6.13;;
5608;SDS011;2826;51.354;9.588;2022-09-06T02:41:37;7.60;;;6.80;;
5608;SDS011;2826;51.354;9.588;2022-09-06T02:44:06;6.33;;;5.73;;
5608;SDS011;2826;51.354;9.588;2022-09-06T02:46:34;6.90;;;5.53;;
5608;SDS011;2826;51.354;9.588;2022-09-06T02:49:01;7.50;;;6.20;;
5608;SDS011;2826;51.354;9.588;2022-09-06T02:51:28;9.13;;;6.07;;
5608;SDS011;2826;51.354;9.588;2022-09-06T02:53:55;6.80;;;5.93;;
5608;SDS011;2826;51.354;9.588;2022-09-06T02:56:22;8.00;;;6.30;;
5608;SDS011;2826;51.354;9.588;2022-09-06T02:58:49;12.40;;;5.57;;
5608;SDS011;2826;51.354;9.588;2022-09-06T03:01:15;6.43;;;5.83;;
5608;SDS011;2826;51.354;9.588;2022-09-06T03:03:44;8.63;;;5.90;;
5608;SDS011;2826;51.354;9.588;2022-09-06T03:06:10;9.97;;;6.30;;
5608;SDS011;2826;51.354;9.588;2022-09-06T03:08:37;7.03;;;6.33;;
5608;SDS011;2826;51.354;9.588;2022-09-06T03:11:04;9.27;;;6.07;;
5608;SDS011;2826;51.354;9.588;2022-09-06T03:13:31;7.27;;;6.47;;
5608;SDS011;2826;51.354;9.588;2022-09-06T03:15:58;7.70;;;6.20;;
5608;SDS011;2826;51.354;9.588;2022-09-06T03:18:26;8.33;;;6.20;;
5608;SDS011;2826;51.354;9.588;2022-09-06T03:20:56;6.67;;;5.80;;
5608;SDS011;2826;51.354;9.588;2022-09-06T03:23:23;8.60;;;6.40;;
5608;SDS011;2826;51.354;9.588;2022-09-06T03:25:52;8.90;;;6.50;;
5608;SDS011;2826;51.354;9.588;2022-09-06T03:28:19;11.57;;;6.43;;
5608;SDS011;2826;51.354;9.588;2022-09-06T03:30:47;8.23;;;6.57;;
5608;SDS011;2826;51.354;9.588;2022-09-06T03:33:15;12.47;;;7.13;;
5608;SDS011;2826;51.354;9.588;2022-09-06T03:35:47;8.93;;;6.93;;
5608;SDS011;2826;51.354;9.588;2022-09-06T03:38:16;6.43;;;5.83;;
5608;SDS011;2826;51.354;9.588;2022-09-06T03:40:44;11.37;;;6.27;;
5608;SDS011;2826;51.354;9.588;2022-09-06T03:43:11;7.80;;;6.07;;
5608;SDS011;2826;51.354;9.588;2022-09-06T03:45:39;6.70;;;5.30;;
5608;SDS011;2826;51.354;9.588;2022-09-06T03:48:06;7.83;;;5.67;;
5608;SDS011;2826;51.354;9.588;2022-09-06T03:50:33;7.07;;;6.10;;
5608;SDS011;2826;51.354;9.588;2022-09-06T03:52:59;8.03;;;5.80;;
5608;SDS011;2826;51.354;9.588;2022-09-06T03:55:27;9.87;;;6.17;;
5608;SDS011;2826;51.354;9.588;2022-09-06T03:57:54;7.00;;;6.20;;
5608;SDS011;2826;51.354;9.588;2022-09-06T04:00:21;7.63;;;6.53;;
5608;SDS011;2826;51.354;9.588;2022-09-06T04:02:48;9.80;;;6.23;;
5608;SDS011;2826;51.354;9.588;2022-09-06T04:05:15;7.37;;;6.53;;
5608;SDS011;2826;51.354;9.588;2022-09-06T04:07:42;7.40;;;6.40;;
5608;SDS011;2826;51.354;9.588;2022-09-06T04:10:09;6.73;;;6.03;;
5608;SDS011;2826;51.354;9.588;2022-09-06T04:12:37;6.90;;;6.20;;
5608;SDS011;2826;51.354;9.588;2022-09-06T04:15:04;17.70;;;6.83;;
5608;SDS011;2826;51.354;9.588;2022-09-06T04:17:31;9.33;;;6.30;;
5608;SDS011;2826;51.354;9.588;2022-09-06T04:19:58;13.40;;;6.40;;
5608;SDS011;2826;51.354;9.588;2022-09-06T04:22:25;8.57;;;6.80;;
5608;SDS011;2826;51.354;9.588;2022-09-06T04:24:52;6.23;;;5.63;;
5608;SDS011;2826;51.354;9.588;2022-09-06T04:27:19;7.80;;;6.97;;
5608;SDS011;2826;51.354;9.588;2022-09-06T04:29:47;9.50;;;6.57;;
5608;SDS011;2826;51.354;9.588;2022-09-06T04:32:13;7.67;;;6.27;;
5608;SDS011;2826;51.354;9.588;2022-09-06T04:34:40;6.87;;;6.10;;
5608;SDS011;2826;51.354;9.588;2022-09-06T04:37:07;6.60;;;5.53;;
5608;SDS011;2826;51.354;9.588;2022-09-06T04:39:34;7.40;;;6.50;;
5608;SDS011;2826;51.354;9.588;2022-09-06T04:42:00;10.40;;;6.70;;
5608;SDS011;2826;51.354;9.588;2022-09-06T04:44:27;8.00;;;6.60;;
5608;SDS011;2826;51.354;9.588;2022-09-06T04:47:03;6.80;;;5.80;;
5608;SDS011;2826;51.354;9.588;2022-09-06T04:49:34;8.20;;;6.33;;
5608;SDS011;2826;51.354;9.588;2022-09-06T04:52:01;7.17;;;6.43;;
5608;SDS011;2826;51.354;9.588;2022-09-06T04:54:28;12.80;;;6.83;;
5608;SDS011;2826;51.354;9.588;2022-09-06T04:56:55;9.80;;;6.70;;
5608;SDS011;2826;51.354;9.588;2022-09-06T04:59:21;12.13;;;6.63;;
5608;SDS011;2826;51.354;9.588;2022-09-06T05:01:48;12.20;;;6.67;;
5608;SDS011;2826;51.354;9.588;2022-09-06T05:04:16;7.90;;;6.83;;
5608;SDS011;2826;51.354;9.588;2022-09-06T05:06:43;8.70;;;6.20;;
5608;SDS011;2826;51.354;9.588;2022-09-06T05:09:10;9.80;;;6.90;;
5608;SDS011;2826;51.354;9.588;2022-09-06T05:11:37;8.30;;;6.43;;
5608;SDS011;2826;51.354;9.588;2022-09-06T05:14:03;7.60;;;6.80;;
5608;SDS011;2826;51.354;9.588;2022-09-06T05:16:30;10.53;;;6.70;;
5608;SDS011;2826;51.354;9.588;2022-09-06T05:18:57;10.13;;;7.27;;
5608;SDS011;2826;51.354;9.588;2022-09-06T05:21:25;9.30;;;6.23;;
5608;SDS011;2826;51.354;9.588;2022-09-06T05:23:52;8.47;;;7.23;;
5608;SDS011;2826;51.354;9.588;2022-09-06T05:26:18;13.03;;;7.13;;
5608;SDS011;2826;51.354;9.588;2022-09-06T05:28:45;9.33;;;6.73;;
5608;SDS011;2826;51.354;9.588;2022-09-06T05:31:21;9.67;;;7.70;;
5608;SDS011;2826;51.354;9.588;2022-09-06T05:33:50;9.23;;;6.83;;
5608;SDS011;2826;51.354;9.588;2022-09-06T05:36:17;12.70;;;7.60;;
5608;SDS011;2826;51.354;9.588;2022-09-06T05:38:45;16.60;;;7.53;;
5608;SDS011;2826;51.354;9.588;2022-09-06T05:41:12;11.13;;;6.57;;
5608;SDS011;2826;51.354;9.588;2022-09-06T05:43:39;16.23;;;7.10;;
5608;SDS011;2826;51.354;9.588;2022-09-06T05:46:05;7.53;;;6.27;;
5608;SDS011;2826;51.354;9.588;2022-09-06T05:48:32;8.10;;;6.23;;
5608;SDS011;2826;51.354;9.588;2022-09-06T05:50:59;11.07;;;7.43;;
5608;SDS011;2826;51.354;9.588;2022-09-06T05:53:27;9.20;;;7.03;;
5608;SDS011;2826;51.354;9.588;2022-09-06T05:56:00;8.73;;;6.53;;
5608;SDS011;2826;51.354;9.588;2022-09-06T05:58:27;20.73;;;7.17;;
5608;SDS011;2826;51.354;9.588;2022-09-06T06:01:02;14.13;;;6.40;;
5608;SDS011;2826;51.354;9.588;2022-09-06T06:03:29;13.03;;;6.80;;
5608;SDS011;2826;51.354;9.588;2022-09-06T06:05:56;11.37;;;6.70;;
5608;SDS011;2826;51.354;9.588;2022-09-06T06:08:23;10.80;;;6.87;;
5608;SDS011;2826;51.354;9.588;2022-09-06T06:10:50;11.23;;;6.50;;
5608;SDS011;2826;51.354;9.588;2022-09-06T06:13:18;15.50;;;6.97;;
5608;SDS011;2826;51.354;9.588;2022-09-06T06:15:44;11.83;;;6.60;;
5608;SDS011;2826;51.354;9.588;2022-09-06T06:18:11;14.93;;;6.70;;
5608;SDS011;2826;51.354;9.588;2022-09-06T06:20:37;15.77;;;7.10;;
5608;SDS011;2826;51.354;9.588;2022-09-06T06:23:04;7.23;;;6.50;;
5608;SDS011;2826;51.354;9.588;2022-09-06T06:25:30;14.47;;;7.07;;
5608;SDS011;2826;51.354;9.588;2022-09-06T06:27:57;16.47;;;6.80;;
5608;SDS011;2826;51.354;9.588;2022-09-06T06:30:25;8.40;;;6.50;;
5608;SDS011;2826;51.354;9.588;2022-09-06T06:32:52;6.30;;;5.70;;
5608;SDS011;2826;51.354;9.588;2022-09-06T06:35:19;6.70;;;5.73;;
5608;SDS011;2826;51.354;9.588;2022-09-06T06:37:45;7.83;;;5.70;;
5608;SDS011;2826;51.354;9.588;2022-09-06T06:40:12;6.50;;;5.90;;
5608;SDS011;2826;51.354;9.588;2022-09-06T06:42:39;10.10;;;6.13;;
5608;SDS011;2826;51.354;9.588;2022-09-06T06:45:06;8.90;;;5.87;;
5608;SDS011;2826;51.354;9.588;2022-09-06T06:47:35;11.70;;;6.30;;
5608;SDS011;2826;51.354;9.588;2022-09-06T06:50:02;12.13;;;6.40;;
5608;SDS011;2826;51.354;9.588;2022-09-06T06:52:29;7.20;;;6.20;;
5608;SDS011;2826;51.354;9.588;2022-09-06T06:54:56;6.23;;;5.60;;
5608;SDS011;2826;51.354;9.588;2022-09-06T06:57:22;8.03;;;6.10;;
5608;SDS011;2826;51.354;9.588;2022-09-06T06:59:49;18.87;;;5.60;;
5608;SDS011;2826;51.354;9.588;2022-09-06T07:02:16;10.93;;;6.30;;
5608;SDS011;2826;51.354;9.588;2022-09-06T07:04:44;12.83;;;5.63;;
5608;SDS011;2826;51.354;9.588;2022-09-06T07:07:11;9.27;;;6.53;;
5608;SDS011;2826;51.354;9.588;2022-09-06T07:09:38;7.90;;;5.80;;
5608;SDS011;2826;51.354;9.588;2022-09-06T07:12:05;6.77;;;5.27;;
5608;SDS011;2826;51.354;9.588;2022-09-06T07:14:32;12.37;;;5.87;;
5608;SDS011;2826;51.354;9.588;2022-09-06T07:16:59;6.83;;;5.47;;
5608;SDS011;2826;51.354;9.588;2022-09-06T07:19:29;5.60;;;5.00;;
5608;SDS011;2826;51.354;9.588;2022-09-06T07:21:57;5.50;;;5.00;;
5608;SDS011;2826;51.354;9.588;2022-09-06T07:24:23;5.40;;;4.90;;
5608;SDS011;2826;51.354;9.588;2022-09-06T07:26:50;5.83;;;5.33;;
5608;SDS011;2826;51.354;9.588;2022-09-06T07:29:17;12.17;;;5.90;;
5608;SDS011;2826;51.354;9.588;2022-09-06T07:31:44;20.30;;;5.83;;
5608;SDS011;2826;51.354;9.588;2022-09-06T07:34:11;26.23;;;5.70;;
5608;SDS011;2826;51.354;9.588;2022-09-06T07:36:38;17.33;;;5.93;;
5608;SDS011;2826;51.354;9.588;2022-09-06T07:39:06;11.63;;;4.70;;
5608;SDS011;2826;51.354;9.588;2022-09-06T07:41:33;7.57;;;4.60;;
5608;SDS011;2826;51.354;9.588;2022-09-06T07:44:00;6.03;;;4.20;;
5608;SDS011;2826;51.354;9.588;2022-09-06T07:46:28;11.63;;;4.80;;
5608;SDS011;2826;51.354;9.588;2022-09-06T07:48:54;20.10;;;5.00;;
5608;SDS011;2826;51.354;9.588;2022-09-06T07:51:21;7.90;;;4.10;;
5608;SDS011;2826;51.354;9.588;2022-09-06T07:53:48;6.20;;;5.30;;
5608;SDS011;2826;51.354;9.588;2022-09-06T07:56:18;14.23;;;5.50;;
5608;SDS011;2826;51.354;9.588;2022-09-06T07:58:47;5.70;;;5.20;;
5608;SDS011;2826;51.354;9.588;2022-09-06T08:01:15;12.63;;;5.53;;
5608;SDS011;2826;51.354;9.588;2022-09-06T08:03:51;8.30;;;6.00;;
5608;SDS011;2826;51.354;9.588;2022-09-06T08:06:19;6.53;;;5.93;;
5608;SDS011;2826;51.354;9.588;2022-09-06T08:08:47;13.00;;;5.67;;
5608;SDS011;2826;51.354;9.588;2022-09-06T08:11:13;6.17;;;5.30;;
5608;SDS011;2826;51.354;9.588;2022-09-06T08:13:42;6.20;;;5.60;;
5608;SDS011;2826;51.354;9.588;2022-09-06T08:16:10;6.47;;;5.87;;
5608;SDS011;2826;51.354;9.588;2022-09-06T08:18:38;9.97;;;5.50;;
5608;SDS011;2826;51.354;9.588;2022-09-06T08:21:05;10.50;;;5.60;;
5608;SDS011;2826;51.354;9.588;2022-09-06T08:23:33;7.37;;;5.77;;
5608;SDS011;2826;51.354;9.588;2022-09-06T08:26:00;8.63;;;6.20;;
5608;SDS011;2826;51.354;9.588;2022-09-06T08:28:27;6.83;;;5.13;;
5608;SDS011;2826;51.354;9.588;2022-09-06T08:31:03;9.07;;;5.70;;
5608;SDS011;2826;51.354;9.588;2022-09-06T08:33:30;10.97;;;5.70;;
5608;SDS011;2826;51.354;9.588;2022-09-06T08:35:57;6.13;;;5.00;;
5608;SDS011;2826;51.354;9.588;2022-09-06T08:38:24;6.87;;;4.97;;
5608;SDS011;2826;51.354;9.588;2022-09-06T08:40:52;5.63;;;4.90;;
5608;SDS011;2826;51.354;9.588;2022-09-06T08:43:21;5.83;;;5.13;;
5608;SDS011;2826;51.354;9.588;2022-09-06T08:45:49;5.33;;;4.70;;
5608;SDS011;2826;51.354;9.588;2022-09-06T08:48:22;5.23;;;4.73;;
5608;SDS011;2826;51.354;9.588;2022-09-06T08:50:56;7.17;;;5.03;;
5608;SDS011;2826;51.354;9.588;2022-09-06T08:53:35;7.80;;;5.33;;
5608;SDS011;2826;51.354;9.588;2022-09-06T08:56:09;8.03;;;5.07;;
5608;SDS011;2826;51.354;9.588;2022-09-06T08:58:43;11.00;;;4.77;;
5608;SDS011;2826;51.354;9.588;2022-09-06T09:01:23;6.67;;;4.20;;
5608;SDS011;2826;51.354;9.588;2022-09-06T09:03:54;5.33;;;4.67;;
5608;SDS011;2826;51.354;9.588;2022-09-06T09:06:27;7.37;;;4.23;;
5608;SDS011;2826;51.354;9.588;2022-09-06T09:08:58;6.03;;;4.47;;
5608;SDS011;2826;51.354;9.588;2022-09-06T09:11:29;4.90;;;4.50;;
5608;SDS011;2826;51.354;9.588;2022-09-06T09:14:00;5.00;;;4.60;;
5608;SDS011;2826;51.354;9.588;2022-09-06T09:16:31;12.37;;;4.73;;
5608;SDS011;2826;51.354;9.588;2022-09-06T09:19:00;5.20;;;4.70;;
5608;SDS011;2826;51.354;9.588;2022-09-06T09:21:30;4.50;;;4.10;;
5608;SDS011;2826;51.354;9.588;2022-09-06T09:24:01;4.43;;;4.03;;
5608;SDS011;2826;51.354;9.588;2022-09-06T09:26:30;4.47;;;3.90;;
5608;SDS011;2826;51.354;9.588;2022-09-06T09:29:02;4.10;;;3.80;;
5608;SDS011;2826;51.354;9.588;2022-09-06T09:31:34;8.70;;;3.77;;
5608;SDS011;2826;51.354;9.588;2022-09-06T09:34:05;8.30;;;4.30;;
5608;SDS011;2826;51.354;9.588;2022-09-06T09:36:36;7.80;;;4.70;;
5608;SDS011;2826;51.354;9.588;2022-09-06T09:39:07;4.40;;;4.00;;
5608;SDS011;2826;51.354;9.588;2022-09-06T09:41:35;4.63;;;4.13;;
5608;SDS011;2826;51.354;9.588;2022-09-06T09:44:06;6.27;;;4.10;;
5608;SDS011;2826;51.354;9.588;2022-09-06T09:46:35;4.97;;;4.50;;
5608;SDS011;2826;51.354;9.588;2022-09-06T09:49:06;5.17;;;4.00;;
5608;SDS011;2826;51.354;9.588;2022-09-06T09:51:35;4.50;;;4.10;;
5608;SDS011;2826;51.354;9.588;2022-09-06T09:54:04;9.00;;;4.90;;
5608;SDS011;2826;51.354;9.588;2022-09-06T09:56:39;6.00;;;4.00;;
5608;SDS011;2826;51.354;9.588;2022-09-06T09:59:20;5.30;;;4.20;;
5608;SDS011;2826;51.354;9.588;2022-09-06T10:01:50;4.90;;;3.83;;
5608;SDS011;2826;51.354;9.588;2022-09-06T10:04:23;5.63;;;4.60;;
5608;SDS011;2826;51.354;9.588;2022-09-06T10:07:05;9.60;;;4.50;;
5608;SDS011;2826;51.354;9.588;2022-09-06T10:09:34;4.93;;;4.10;;
5608;SDS011;2826;51.354;9.588;2022-09-06T10:12:02;6.20;;;4.43;;
5608;SDS011;2826;51.354;9.588;2022-09-06T10:14:30;7.07;;;4.30;;
5608;SDS011;2826;51.354;9.588;2022-09-06T10:16:58;6.60;;;4.37;;
5608;SDS011;2826;51.354;9.588;2022-09-06T10:19:35;9.80;;;4.07;;
5608;SDS011;2826;51.354;9.588;2022-09-06T10:22:11;6.77;;;4.00;;
5608;SDS011;2826;51.354;9.588;2022-09-06T10:24:51;8.93;;;4.40;;
5608;SDS011;2826;51.354;9.588;2022-09-06T10:27:33;5.70;;;4.13;;
5608;SDS011;2826;51.354;9.588;2022-09-06T10:30:00;7.33;;;4.10;;
5608;SDS011;2826;51.354;9.588;2022-09-06T10:32:33;4.90;;;4.17;;
5608;SDS011;2826;51.354;9.588;2022-09-06T10:35:13;8.90;;;4.43;;
5608;SDS011;2826;51.354;9.588;2022-09-06T10:37:51;4.97;;;4.50;;
5608;SDS011;2826;51.354;9.588;2022-09-06T10:40:29;4.50;;;4.10;;
5608;SDS011;2826;51.354;9.588;2022-09-06T10:42:59;5.73;;;4.40;;
5608;SDS011;2826;51.354;9.588;2022-09-06T10:45:38;4.30;;;3.90;;
5608;SDS011;2826;51.354;9.588;2022-09-06T10:48:11;5.73;;;3.97;;
5608;SDS011;2826;51.354;9.588;2022-09-06T10:50:46;5.40;;;4.23;;
5608;SDS011;2826;51.354;9.588;2022-09-06T10:53:24;9.50;;;3.90;;
5608;SDS011;2826;51.354;9.588;2022-09-06T10:56:00;4.50;;;4.10;;
5608;SDS011;2826;51.354;9.588;2022-09-06T10:58:30;9.60;;;4.67;;
5608;SDS011;2826;51.354;9.588;2022-09-06T11:01:02;6.83;;;4.23;;
5608;SDS011;2826;51.354;9.588;2022-09-06T11:03:33;5.13;;;4.30;;
5608;SDS011;2826;51.354;9.588;2022-09-06T11:06:07;4.67;;;3.97;;
5608;SDS011;2826;51.354;9.588;2022-09-06T11:08:38;4.67;;;4.27;;
5608;SDS011;2826;51.354;9.588;2022-09-06T11:11:10;6.70;;;4.30;;
5608;SDS011;2826;51.354;9.588;2022-09-06T11:13:42;4.83;;;4.00;;
5608;SDS011;2826;51.354;9.588;2022-09-06T11:16:10;8.50;;;4.07;;
5608;SDS011;2826;51.354;9.588;2022-09-06T11:18:45;7.27;;;3.73;;
5608;SDS011;2826;51.354;9.588;2022-09-06T11:21:24;8.07;;;3.60;;
5608;SDS011;2826;51.354;9.588;2022-09-06T11:24:11;4.57;;;3.33;;
5608;SDS011;2826;51.354;9.588;2022-09-06T11:26:42;4.10;;;3.40;;
5608;SDS011;2826;51.354;9.588;2022-09-06T11:29:15;10.30;;;3.57;;
5608;SDS011;2826;51.354;9.588;2022-09-06T11:31:49;5.00;;;3.00;;
5608;SDS011;2826;51.354;9.588;2022-09-06T11:34:19;4.60;;;3.40;;
5608;SDS011;2826;51.354;9.588;2022-09-06T11:36:49;6.83;;;3.90;;
5608;SDS011;2826;51.354;9.588;2022-09-06T11:39:30;7.23;;;3.00;;
5608;SDS011;2826;51.354;9.588;2022-09-06T11:41:59;4.83;;;3.33;;
5608;SDS011;2826;51.354;9.588;2022-09-06T11:50:22;5.70;;;3.20;;
5608;SDS011;2826;51.354;9.588;2022-09-06T11:53:08;4.70;;;2.70;;
5608;SDS011;2826;51.354;9.588;2022-09-06T11:55:39;4.60;;;2.33;;
5608;SDS011;2826;51.354;9.588;2022-09-06T11:58:09;5.53;;;2.53;;
5608;SDS011;2826;51.354;9.588;2022-09-06T12:04:00;6.90;;;2.30;;
5608;SDS011;2826;51.354;9.588;2022-09-06T12:06:32;2.93;;;1.90;;
5608;SDS011;2826;51.354;9.588;2022-09-06T12:09:11;5.40;;;2.60;;
5608;SDS011;2826;51.354;9.588;2022-09-06T12:11:53;4.50;;;2.47;;
5608;SDS011;2826;51.354;9.588;2022-09-06T12:14:28;2.90;;;2.30;;
5608;SDS011;2826;51.354;9.588;2022-09-06T12:19:53;2.63;;;2.40;;
5608;SDS011;2826;51.354;9.588;2022-09-06T12:34:08;1.93;;;1.70;;
5608;SDS011;2826;51.354;9.588;2022-09-06T12:36:45;7.23;;;2.10;;
5608;SDS011;2826;51.354;9.588;2022-09-06T12:39:15;12.23;;;1.90;;
5608;SDS011;2826;51.354;9.588;2022-09-06T12:41:43;1.90;;;1.80;;
5608;SDS011;2826;51.354;9.588;2022-09-06T12:44:15;2.07;;;1.87;;
5608;SDS011;2826;51.354;9.588;2022-09-06T12:46:47;3.33;;;2.00;;
5608;SDS011;2826;51.354;9.588;2022-09-06T12:49:16;1.97;;;1.63;;
5608;SDS011;2826;51.354;9.588;2022-09-06T12:51:45;1.60;;;1.50;;
5608;SDS011;2826;51.354;9.588;2022-09-06T12:54:18;1.93;;;1.50;;
5608;SDS011;2826;51.354;9.588;2022-09-06T12:56:48;3.67;;;1.57;;
5608;SDS011;2826;51.354;9.588;2022-09-06T12:59:16;1.50;;;1.40;;
5608;SDS011;2826;51.354;9.588;2022-09-06T13:01:46;3.83;;;1.70;;
5608;SDS011;2826;51.354;9.588;2022-09-06T13:04:23;3.00;;;1.40;;
5608;SDS011;2826;51.354;9.588;2022-09-06T13:06:54;3.67;;;1.40;;
5608;SDS011;2826;51.354;9.588;2022-09-06T13:09:22;1.40;;;1.30;;
5608;SDS011;2826;51.354;9.588;2022-09-06T13:11:53;1.83;;;1.50;;
5608;SDS011;2826;51.354;9.588;2022-09-06T13:14:27;2.67;;;1.80;;
5608;SDS011;2826;51.354;9.588;2022-09-06T13:16:56;2.57;;;1.70;;
5608;SDS011;2826;51.354;9.588;2022-09-06T13:19:34;3.70;;;1.60;;
5608;SDS011;2826;51.354;9.588;2022-09-06T13:22:03;1.67;;;1.50;;
5608;SDS011;2826;51.354;9.588;2022-09-06T13:24:40;1.67;;;1.57;;
5608;SDS011;2826;51.354;9.588;2022-09-06T13:27:24;2.60;;;1.57;;
5608;SDS011;2826;51.354;9.588;2022-09-06T13:29:58;5.80;;;1.40;;
5608;SDS011;2826;51.354;9.588;2022-09-06T13:32:26;3.63;;;1.70;;
5608;SDS011;2826;51.354;9.588;2022-09-06T13:34:54;1.70;;;1.60;;
5608;SDS011;2826;51.354;9.588;2022-09-06T13:37:23;16.77;;;2.37;;
5608;SDS011;2826;51.354;9.588;2022-09-06T13:39:51;2.03;;;1.40;;
5608;SDS011;2826;51.354;9.588;2022-09-06T13:42:29;1.70;;;1.60;;
5608;SDS011;2826;51.354;9.588;2022-09-06T13:44:57;1.50;;;1.40;;
5608;SDS011;2826;51.354;9.588;2022-09-06T13:47:40;3.80;;;1.40;;
5608;SDS011;2826;51.354;9.588;2022-09-06T13:50:07;1.60;;;1.40;;
5608;SDS011;2826;51.354;9.588;2022-09-06T13:52:34;4.43;;;1.60;;
5608;SDS011;2826;51.354;9.588;2022-09-06T13:55:01;1.50;;;1.33;;
5608;SDS011;2826;51.354;9.588;2022-09-06T13:57:29;2.20;;;1.73;;
5608;SDS011;2826;51.354;9.588;2022-09-06T13:59:56;1.40;;;1.30;;
5608;SDS011;2826;51.354;9.588;2022-09-06T14:02:22;1.40;;;1.30;;
5608;SDS011;2826;51.354;9.588;2022-09-06T14:04:49;4.00;;;2.20;;
5608;SDS011;2826;51.354;9.588;2022-09-06T14:07:16;3.47;;;1.70;;
5608;SDS011;2826;51.354;9.588;2022-09-06T14:09:43;1.90;;;1.60;;
5608;SDS011;2826;51.354;9.588;2022-09-06T14:12:09;2.90;;;1.50;;
5608;SDS011;2826;51.354;9.588;2022-09-06T14:14:37;1.60;;;1.50;;
5608;SDS011;2826;51.354;9.588;2022-09-06T14:17:04;3.37;;;1.70;;
5608;SDS011;2826;51.354;9.588;2022-09-06T14:19:31;2.20;;;1.60;;
5608;SDS011;2826;51.354;9.588;2022-09-06T14:21:58;4.50;;;1.40;;
5608;SDS011;2826;51.354;9.588;2022-09-06T14:24:24;2.17;;;1.63;;
5608;SDS011;2826;51.354;9.588;2022-09-06T14:26:51;2.53;;;1.60;;
5608;SDS011;2826;51.354;9.588;2022-09-06T14:29:18;3.53;;;1.67;;
5608;SDS011;2826;51.354;9.588;2022-09-06T14:31:46;1.80;;;1.70;;
5608;SDS011;2826;51.354;9.588;2022-09-06T14:34:13;3.20;;;1.40;;
5608;SDS011;2826;51.354;9.588;2022-09-06T14:36:40;5.10;;;1.57;;
5608;SDS011;2826;51.354;9.588;2022-09-06T14:39:07;1.50;;;1.40;;
5608;SDS011;2826;51.354;9.588;2022-09-06T14:41:34;2.33;;;1.60;;
5608;SDS011;2826;51.354;9.588;2022-09-06T14:44:01;4.23;;;1.63;;
5608;SDS011;2826;51.354;9.588;2022-09-06T14:46:28;1.40;;;1.20;;
5608;SDS011;2826;51.354;9.588;2022-09-06T14:48:57;3.30;;;1.60;;
5608;SDS011;2826;51.354;9.588;2022-09-06T14:51:26;1.70;;;1.60;;
5608;SDS011;2826;51.354;9.588;2022-09-06T14:53:54;2.17;;;1.90;;
5608;SDS011;2826;51.354;9.588;2022-09-06T14:56:23;2.50;;;1.70;;
5608;SDS011;2826;51.354;9.588;2022-09-06T14:58:51;2.57;;;1.70;;
5608;SDS011;2826;51.354;9.588;2022-09-06T15:01:22;2.67;;;1.60;;
5608;SDS011;2826;51.354;9.588;2022-09-06T15:03:50;1.73;;;1.63;;
5608;SDS011;2826;51.354;9.588;2022-09-06T15:06:23;1.87;;;1.50;;
5608;SDS011;2826;51.354;9.588;2022-09-06T15:08:51;1.67;;;1.40;;
5608;SDS011;2826;51.354;9.588;2022-09-06T15:11:26;5.53;;;1.60;;
5608;SDS011;2826;51.354;9.588;2022-09-06T15:13:54;1.93;;;1.73;;
5608;SDS011;2826;51.354;9.588;2022-09-06T15:16:22;1.90;;;1.80;;
5608;SDS011;2826;51.354;9.588;2022-09-06T15:18:49;4.57;;;1.60;;
5608;SDS011;2826;51.354;9.588;2022-09-06T15:21:15;1.83;;;1.60;;
5608;SDS011;2826;51.354;9.588;2022-09-06T15:23:44;2.00;;;1.40;;
5608;SDS011;2826;51.354;9.588;2022-09-06T15:26:11;6.80;;;1.70;;
5608;SDS011;2826;51.354;9.588;2022-09-06T15:28:40;2.90;;;1.70;;
5608;SDS011;2826;51.354;9.588;2022-09-06T15:31:08;3.53;;;1.70;;
5608;SDS011;2826;51.354;9.588;2022-09-06T15:33:36;2.63;;;1.60;;
5608;SDS011;2826;51.354;9.588;2022-09-06T15:36:05;4.70;;;1.83;;
5608;SDS011;2826;51.354;9.588;2022-09-06T15:38:33;2.07;;;1.50;;
5608;SDS011;2826;51.354;9.588;2022-09-06T15:41:05;4.93;;;1.73;;
5608;SDS011;2826;51.354;9.588;2022-09-06T15:43:33;6.47;;;2.23;;
5608;SDS011;2826;51.354;9.588;2022-09-06T15:46:01;2.30;;;1.70;;
5608;SDS011;2826;51.354;9.588;2022-09-06T15:48:29;2.90;;;1.80;;
5608;SDS011;2826;51.354;9.588;2022-09-06T15:51:05;5.33;;;1.90;;
5608;SDS011;2826;51.354;9.588;2022-09-06T15:53:32;2.70;;;1.73;;